Time;durP1;ratioP1;P1;durP2;ratioP2;P2;SDS_P1;SDS_P2;PMS_P1;PMS_P2;Temp;Humidity;BMP_temperature;BMP_pressure;BME280_temperature;BME280_humidity;BME280_pressure;Samples;Min_cycle;Max_cycle;Signal;HPM_P1;HPM_P2
2021/01/21 00:01:28;;;;;;;4.80;1.33;;;;;;;;;;4973431;28;20031;-67
2021/01/21 00:03:53;;;;;;;4.87;1.53;;;;;;;;;;4989108;28;20459;-67
2021/01/21 00:06:18;;;;;;;3.70;1.47;;;;;;;;;;4988998;28;20508;-68
2021/01/21 00:08:44;;;;;;;7.23;1.83;;;;;;;;;;4973604;28;20463;-67
2021/01/21 00:11:09;;;;;;;5.20;1.50;;;;;;;;;;4973981;28;20356;-70
2021/01/21 00:13:35;;;;;;;3.63;1.30;;;;;;;;;;4972353;28;20030;-69
2021/01/21 00:16:00;;;;;;;4.13;1.40;;;;;;;;;;4972208;28;20038;-68
2021/01/21 00:18:26;;;;;;;2.75;1.35;;;;;;;;;;4983366;28;20105;-69
2021/01/21 00:20:51;;;;;;;5.47;1.60;;;;;;;;;;4973767;28;20037;-71
2021/01/21 00:23:17;;;;;;;2.73;1.10;;;;;;;;;;4971297;28;20188;-68
2021/01/21 00:25:42;;;;;;;2.97;1.30;;;;;;;;;;4954008;29;20039;-68
2021/01/21 00:28:07;;;;;;;4.97;1.50;;;;;;;;;;4954493;29;20126;-69
2021/01/21 00:30:33;;;;;;;5.60;1.23;;;;;;;;;;4956688;28;20035;-69
2021/01/21 00:32:58;;;;;;;5.80;1.40;;;;;;;;;;4988622;28;20030;-68
2021/01/21 00:35:23;;;;;;;5.40;2.07;;;;;;;;;;4972845;28;20059;-65
2021/01/21 00:37:49;;;;;;;3.03;1.60;;;;;;;;;;4973676;28;20034;-69
2021/01/21 00:40:14;;;;;;;5.87;1.60;;;;;;;;;;4973633;28;20030;-69
2021/01/21 00:42:40;;;;;;;5.90;1.47;;;;;;;;;;4988016;28;20065;-68
2021/01/21 00:45:06;;;;;;;2.88;1.10;;;;;;;;;;4988204;28;20379;-68
2021/01/21 00:47:31;;;;;;;5.75;1.73;;;;;;;;;;4969893;28;20256;-68
2021/01/21 00:49:57;;;;;;;3.37;1.10;;;;;;;;;;4953971;29;20539;-68
2021/01/21 00:52:22;;;;;;;3.03;1.27;;;;;;;;;;4959223;28;20118;-70
2021/01/21 00:54:48;;;;;;;3.27;1.40;;;;;;;;;;4971407;28;20053;-68
2021/01/21 00:57:13;;;;;;;2.97;1.20;;;;;;;;;;4988508;28;20051;-70
2021/01/21 00:59:38;;;;;;;4.10;1.30;;;;;;;;;;4972380;28;20054;-69
2021/01/21 01:02:06;;;;;;;5.53;1.40;;;;;;;;;;4960183;28;20038;-68
2021/01/21 01:04:32;;;;;;;7.93;1.63;;;;;;;;;;4967934;28;20654;-68
2021/01/21 01:07:01;;;;;;;3.23;1.17;;;;;;;;;;4953887;29;20119;-67
2021/01/21 01:09:26;;;;;;;2.80;1.20;;;;;;;;;;4967908;28;20357;-65
2021/01/21 01:11:52;;;;;;;10.07;1.73;;;;;;;;;;4968727;28;20028;-68
2021/01/21 01:14:17;;;;;;;2.17;1.03;;;;;;;;;;4969052;28;20431;-68
2021/01/21 01:16:42;;;;;;;3.60;1.23;;;;;;;;;;4971251;28;20553;-67
2021/01/21 01:19:09;;;;;;;5.00;1.13;;;;;;;;;;4988399;28;20483;-69
2021/01/21 01:21:34;;;;;;;1.93;1.10;;;;;;;;;;4987736;28;20158;-66
2021/01/21 01:24:00;;;;;;;5.75;1.60;;;;;;;;;;4973643;28;20117;-68
2021/01/21 01:26:26;;;;;;;5.22;1.70;;;;;;;;;;4977153;28;20170;-69
2021/01/21 01:28:59;;;;;;;7.43;1.47;;;;;;;;;;4991312;28;20364;-68
2021/01/21 01:31:26;;;;;;;4.27;1.47;;;;;;;;;;4957743;29;20289;-69
2021/01/21 01:33:52;;;;;;;6.83;1.30;;;;;;;;;;4957035;29;20015;-70
2021/01/21 01:36:18;;;;;;;4.32;1.27;;;;;;;;;;4956291;29;20360;-69
2021/01/21 01:38:43;;;;;;;6.80;1.83;;;;;;;;;;4971745;28;20091;-68
2021/01/21 01:41:28;;;;;;;3.17;1.10;;;;;;;;;;4972399;28;20051;-67
2021/01/21 01:43:54;;;;;;;3.08;1.20;;;;;;;;;;4991503;28;20265;-68
2021/01/21 01:46:19;;;;;;;7.93;1.30;;;;;;;;;;4976803;28;20118;-68
2021/01/21 01:48:45;;;;;;;4.80;1.30;;;;;;;;;;4974610;28;20386;-68
2021/01/21 01:51:10;;;;;;;5.60;1.23;;;;;;;;;;4974979;28;20292;-67
2021/01/21 01:53:38;;;;;;;3.57;1.23;;;;;;;;;;4974840;28;20011;-67
2021/01/21 01:56:12;;;;;;;6.83;1.57;;;;;;;;;;4975352;28;20343;-68
2021/01/21 01:58:50;;;;;;;3.83;1.07;;;;;;;;;;4974264;28;20285;-68
2021/01/21 02:01:28;;;;;;;2.97;1.20;;;;;;;;;;4991417;28;20812;-68
2021/01/21 02:03:55;;;;;;;4.13;1.40;;;;;;;;;;4970234;28;20354;-68
2021/01/21 02:06:28;;;;;;;2.17;1.13;;;;;;;;;;4974956;28;20029;-66
2021/01/21 02:08:57;;;;;;;3.90;1.40;;;;;;;;;;4966342;28;20369;-69
2021/01/21 02:11:23;;;;;;;4.68;1.15;;;;;;;;;;4975262;28;20265;-68
2021/01/21 02:14:02;;;;;;;4.63;1.37;;;;;;;;;;4974005;28;20134;-69
2021/01/21 02:16:49;;;;;;;2.67;1.20;;;;;;;;;;4974783;28;20038;-69
2021/01/21 02:19:25;;;;;;;5.13;1.57;;;;;;;;;;4975396;28;20272;-68
2021/01/21 02:21:53;;;;;;;2.63;0.90;;;;;;;;;;4974270;28;20284;-69
2021/01/21 02:24:37;;;;;;;3.43;1.20;;;;;;;;;;4976144;28;20280;-68
2021/01/21 02:27:06;;;;;;;2.97;1.43;;;;;;;;;;4974519;28;20291;-71
2021/01/21 02:29:36;;;;;;;4.00;1.10;;;;;;;;;;4990712;28;20614;-68
2021/01/21 02:32:05;;;;;;;5.03;1.03;;;;;;;;;;4975612;28;20701;-68
2021/01/21 02:34:45;;;;;;;2.87;0.77;;;;;;;;;;4974421;28;20265;-69
2021/01/21 02:37:17;;;;;;;2.63;1.03;;;;;;;;;;4974274;28;20296;-68
2021/01/21 02:39:55;;;;;;;4.13;1.07;;;;;;;;;;4973902;28;20983;-69
2021/01/21 02:42:21;;;;;;;5.30;1.17;;;;;;;;;;4974444;28;20375;-68
2021/01/21 02:44:47;;;;;;;4.90;1.30;;;;;;;;;;4973860;28;20390;-68
2021/01/21 02:47:13;;;;;;;4.93;1.48;;;;;;;;;;4975641;28;20356;-70
2021/01/21 02:49:39;;;;;;;4.95;1.48;;;;;;;;;;4989820;28;20073;-68
2021/01/21 02:52:23;;;;;;;5.25;1.63;;;;;;;;;;4990269;28;20126;-68
2021/01/21 02:54:49;;;;;;;2.30;1.10;;;;;;;;;;4975116;28;20062;-69
2021/01/21 02:57:33;;;;;;;1.75;0.85;;;;;;;;;;4973825;28;20347;-70
2021/01/21 03:00:01;;;;;;;5.37;1.37;;;;;;;;;;4990043;28;20138;-68
2021/01/21 03:02:29;;;;;;;3.50;1.60;;;;;;;;;;4974580;28;20897;-68
2021/01/21 03:04:56;;;;;;;5.38;1.17;;;;;;;;;;4974666;28;20343;-68
2021/01/21 03:07:22;;;;;;;3.63;0.90;;;;;;;;;;4975371;28;20054;-69
2021/01/21 03:09:48;;;;;;;5.78;1.58;;;;;;;;;;4989398;28;20314;-68
2021/01/21 03:12:15;;;;;;;3.83;1.20;;;;;;;;;;4973859;28;20034;-69
2021/01/21 03:14:41;;;;;;;2.27;1.00;;;;;;;;;;4974569;28;20273;-68
2021/01/21 03:17:06;;;;;;;3.47;1.38;;;;;;;;;;4990258;28;20113;-68
2021/01/21 03:19:34;;;;;;;7.07;1.67;;;;;;;;;;4990397;28;20447;-68
2021/01/21 03:21:59;;;;;;;2.20;1.00;;;;;;;;;;4989276;28;20284;-68
2021/01/21 03:24:30;;;;;;;12.10;2.00;;;;;;;;;;4990006;28;20085;-70
2021/01/21 03:27:04;;;;;;;5.95;1.60;;;;;;;;;;4973669;28;20669;-69
2021/01/21 03:29:29;;;;;;;4.70;1.30;;;;;;;;;;4973595;28;20031;-69
2021/01/21 03:31:56;;;;;;;2.65;1.13;;;;;;;;;;4973006;28;20280;-69
2021/01/21 03:34:27;;;;;;;4.68;1.45;;;;;;;;;;4973168;28;20046;-69
2021/01/21 03:37:02;;;;;;;5.20;1.60;;;;;;;;;;4972909;28;20141;-69
2021/01/21 03:39:30;;;;;;;7.50;1.42;;;;;;;;;;4989530;28;20428;-70
2021/01/21 03:42:14;;;;;;;5.93;1.48;;;;;;;;;;4987442;28;20138;-69
2021/01/21 03:45:06;;;;;;;4.22;1.08;;;;;;;;;;4974448;28;20038;-69
2021/01/21 03:47:31;;;;;;;5.05;1.40;;;;;;;;;;4989331;28;20038;-68
2021/01/21 03:50:01;;;;;;;6.63;1.58;;;;;;;;;;4957090;28;20038;-69
2021/01/21 03:52:30;;;;;;;4.45;1.35;;;;;;;;;;4989317;28;20383;-68
2021/01/21 03:55:00;;;;;;;4.72;1.65;;;;;;;;;;4972479;28;20247;-69
2021/01/21 03:57:26;;;;;;;3.00;1.57;;;;;;;;;;4974333;28;20035;-68
2021/01/21 04:00:00;;;;;;;2.20;1.20;;;;;;;;;;4972325;28;20490;-69
2021/01/21 04:02:26;;;;;;;5.17;1.87;;;;;;;;;;4973083;28;20031;-68
2021/01/21 04:05:09;;;;;;;14.00;2.25;;;;;;;;;;4989118;28;20031;-64
2021/01/21 04:10:21;;;;;;;4.40;0.70;;;;;;;-147.27;100.00;65176.34;5150422;27;20354;-65
2021/01/21 04:13:16;;;;;;;4.40;1.10;;;;;;;-147.27;100.00;65176.34;5117233;28;20039;-66
2021/01/21 04:15:45;;;;;;;4.45;0.90;;;;;;;23.88;39.32;98351.53;5111810;28;20044;-62
2021/01/21 04:18:11;;;;;;;5.97;1.50;;;;;;;24.41;35.79;98369.00;5111626;28;20100;-68
2021/01/21 04:21:12;;;;;;;2.53;0.60;;;;;;;24.63;35.78;98371.16;5117054;28;20043;-69
2021/01/21 04:23:39;;;;;;;5.90;1.88;;;;;;;25.01;35.61;98395.53;5111620;28;20168;-68
2021/01/21 04:26:13;;;;;;;3.00;1.02;;;;;;;23.26;37.08;98394.47;5111930;28;20139;-67
2021/01/21 04:28:42;;;;;;;3.58;0.90;;;;;;;23.89;36.27;98394.06;5111449;28;20044;-68
2021/01/21 04:31:08;;;;;;;6.30;0.80;;;;;;;23.57;35.82;98423.09;5110479;28;20450;-69
2021/01/21 04:33:33;;;;;;;4.20;0.97;;;;;;;10.92;100.00;98458.53;5095489;28;20039;-67
2021/01/21 04:35:59;;;;;;;6.20;1.00;;;;;;;10.41;100.00;98470.41;5110881;28;20282;-67
2021/01/21 04:38:28;;;;;;;6.70;0.90;;;;;;;10.71;100.00;98476.25;5111310;28;20044;-66
2021/01/21 04:41:02;;;;;;;3.83;0.65;;;;;;;10.16;100.00;98485.09;5094754;28;20355;-65
2021/01/21 04:43:46;;;;;;;13.73;1.90;;;;;;;9.84;100.00;98479.63;5128698;28;20517;-65
2021/01/21 04:46:20;;;;;;;12.50;1.83;;;;;;;9.70;100.00;98481.88;5111158;28;20095;-67
2021/01/21 04:48:51;;;;;;;5.63;1.30;;;;;;;9.87;100.00;98479.94;5110308;28;20069;-66
2021/01/21 04:51:19;;;;;;;6.13;1.92;;;;;;;10.32;100.00;98426.44;5111212;28;20252;-67
2021/01/21 04:54:02;;;;;;;8.13;1.10;;;;;;;10.07;100.00;98465.19;5110460;28;20478;-67
2021/01/21 04:56:48;;;;;;;8.02;1.15;;;;;;;10.58;100.00;98506.88;5110787;28;20502;-67
2021/01/21 04:59:38;;;;;;;4.25;1.17;;;;;;;10.90;100.00;98474.81;5111125;28;20461;-66
2021/01/21 05:02:07;;;;;;;2.22;1.13;;;;;;;11.27;94.42;98485.78;5093818;28;20352;-66
2021/01/21 05:04:36;;;;;;;9.23;1.58;;;;;;;11.05;94.62;98494.72;5111091;28;20142;-68
2021/01/21 05:07:12;;;;;;;3.22;0.95;;;;;;;11.40;90.88;98487.19;5095189;28;20455;-66
2021/01/21 05:09:39;;;;;;;7.10;0.88;;;;;;;11.58;85.87;98489.44;5090431;28;20048;-67
2021/01/21 05:12:10;;;;;;;5.65;1.17;;;;;;;12.68;78.83;98525.47;5106775;28;20076;-68
2021/01/21 05:14:52;;;;;;;7.07;1.15;;;;;;;12.28;75.81;98565.31;5092400;28;20058;-68
2021/01/21 05:17:37;;;;;;;4.95;1.00;;;;;;;11.28;84.15;98552.41;5107864;28;20051;-67
2021/01/21 05:20:35;;;;;;;5.70;1.00;;;;;;;12.32;76.09;98601.25;5101004;28;20044;-67
2021/01/21 05:23:33;;;;;;;3.85;1.15;;;;;;;10.57;87.77;98601.50;5032525;28;20887;-67
2021/01/21 05:26:07;;;;;;;4.05;1.10;;;;;;;11.13;89.29;98592.44;5015720;28;20510;-68
2021/01/21 05:28:57;;;;;;;9.13;1.23;;;;;;;10.83;84.10;98604.44;5035549;28;20041;-68
2021/01/21 05:31:54;;;;;;;9.65;2.45;;;;;;;10.84;84.44;98632.78;5031724;28;20117;-68
2021/01/21 05:34:20;;;;;;;7.97;2.70;;;;;;;11.58;87.72;98604.56;5031907;28;20485;-68
2021/01/21 05:37:02;;;;;;;9.02;1.40;;;;;;;11.32;79.78;98607.03;5033884;28;20045;-69
2021/01/21 05:39:38;;;;;;;8.27;1.55;;;;;;;11.50;83.61;98585.50;5031952;28;20057;-69
2021/01/21 05:42:27;;;;;;;7.25;1.23;;;;;;;11.95;77.42;98570.78;5032134;28;20129;-68
2021/01/21 05:45:25;;;;;;;12.88;1.67;;;;;;;11.32;68.15;98587.50;5031959;28;20571;-69
2021/01/21 05:48:00;;;;;;;7.07;1.38;;;;;;;10.95;74.55;98629.16;5032047;28;20505;-68
2021/01/21 05:50:27;;;;;;;8.25;1.40;;;;;;;11.93;66.19;98645.22;5032711;28;20042;-69
2021/01/21 05:52:57;;;;;;;4.78;1.85;;;;;;;10.84;65.98;98648.81;5031350;28;20157;-68
2021/01/21 05:55:25;;;;;;;6.82;1.63;;;;;;;12.33;61.46;98648.41;5015181;28;20072;-68
2021/01/21 05:57:55;;;;;;;9.35;2.13;;;;;;;12.62;61.89;98642.63;5048028;28;20119;-60
2021/01/21 06:00:26;;;;;;;5.72;1.60;;;;;;;12.36;63.13;98661.28;5093072;28;20500;-69
2021/01/21 06:03:07;;;;;;;15.18;1.70;;;;;;;12.17;63.76;98659.03;5092342;28;20105;-68
2021/01/21 06:05:56;;;;;;;10.70;1.92;;;;;;;11.66;62.56;98701.53;5092680;28;20047;-68
2021/01/21 06:08:22;;;;;;;6.18;1.23;;;;;;;12.05;64.10;98691.38;5097565;28;20090;-69
2021/01/21 06:10:47;;;;;;;6.30;2.03;;;;;;;12.22;60.77;98724.44;5093163;28;20535;-69
2021/01/21 06:13:16;;;;;;;10.68;2.28;;;;;;;12.27;62.80;98698.50;5077206;28;20207;-69
2021/01/21 06:15:41;;;;;;;8.88;2.42;;;;;;;12.17;62.81;98691.19;5085604;28;20086;-69
2021/01/21 06:18:07;;;;;;;19.77;4.40;;;;;;;12.20;58.17;98716.69;5078135;28;20037;-69
2021/01/21 06:20:48;;;;;;;12.95;2.03;;;;;;;12.31;61.35;98696.91;5041082;28;20111;-70
2021/01/21 06:23:35;;;;;;;10.32;1.40;;;;;;;12.37;56.61;98726.44;5063418;28;20080;-70
2021/01/21 06:26:27;;;;;;;12.38;1.90;;;;;;;11.66;61.19;98739.00;5051268;28;20372;-69
2021/01/21 06:28:56;;;;;;;9.82;2.38;;;;;;;12.27;60.24;98727.19;5072387;28;20036;-70
2021/01/21 06:31:22;;;;;;;11.43;1.73;;;;;;;12.23;56.08;98752.88;5072292;28;20043;-70
2021/01/21 06:33:52;;;;;;;8.88;1.52;;;;;;;12.11;57.67;98745.81;5104094;28;20063;-69
2021/01/21 06:36:20;;;;;;;6.63;1.20;;;;;;;11.53;58.89;98765.09;5085060;28;20376;-69
2021/01/21 06:38:50;;;;;;;8.02;1.42;;;;;;;12.04;57.06;98766.69;5059654;28;20370;-70
2021/01/21 06:41:18;;;;;;;8.15;1.35;;;;;;;11.46;58.19;98777.91;5099267;28;20123;-69
2021/01/21 06:43:45;;;;;;;4.20;1.05;;;;;;;11.46;56.54;98794.78;5093141;28;20032;-70
2021/01/21 06:46:15;;;;;;;10.07;1.77;;;;;;;12.22;55.90;98778.03;5076657;28;20044;-68
2021/01/21 06:48:48;;;;;;;6.45;1.65;;;;;;;10.89;59.98;98791.41;5092760;28;20101;-69
2021/01/21 06:51:16;;;;;;;11.75;2.00;;;;;;;11.49;57.06;98809.50;5083998;28;20035;-68
2021/01/21 06:53:44;;;;;;;13.20;2.15;;;;;;;12.30;55.01;98809.75;5113515;28;20031;-69
2021/01/21 06:56:10;;;;;;;7.50;2.05;;;;;;;11.40;56.52;98817.16;5107171;28;20360;-68
2021/01/21 06:58:46;;;;;;;8.15;1.40;;;;;;;11.23;58.33;98814.56;5095552;28;20483;-69
2021/01/21 07:01:30;;;;;;;5.93;1.38;;;;;;;10.71;59.27;98829.97;5091092;28;20068;-69
2021/01/21 07:03:57;;;;;;;12.98;1.50;;;;;;;10.95;58.81;98824.41;5114542;28;20120;-69
2021/01/21 07:06:22;;;;;;;7.80;1.33;;;;;;;11.29;58.63;98816.25;5095119;28;20119;-69
2021/01/21 07:09:05;;;;;;;8.00;2.10;;;;;;;11.41;57.67;98842.88;5096713;28;20115;-69
2021/01/21 07:11:34;;;;;;;11.27;1.88;;;;;;;11.35;59.43;98837.72;5115745;28;20440;-72
2021/01/21 07:14:00;;;;;;;11.85;2.47;;;;;;;11.50;57.43;98855.84;5113730;28;20035;-67
2021/01/21 07:16:26;;;;;;;5.43;1.17;;;;;;;11.11;57.02;98846.00;5093365;28;20060;-69
2021/01/21 07:18:54;;;;;;;5.07;1.35;;;;;;;11.49;56.64;98863.03;5093482;28;20047;-69
2021/01/21 07:21:24;;;;;;;15.07;2.22;;;;;;;11.65;56.33;98868.56;5068341;28;20047;-69
2021/01/21 07:23:54;;;;;;;9.80;2.92;;;;;;;12.02;54.60;98879.44;5039054;28;20112;-69
2021/01/21 07:26:34;;;;;;;14.40;2.20;;;;;;;11.21;56.01;98872.88;5054961;28;20055;-70
2021/01/21 07:29:04;;;;;;;7.93;1.75;;;;;;;11.40;55.26;98884.06;5074067;28;20046;-59
2021/01/21 07:31:52;;;;;;;18.38;2.72;;;;;;;11.06;57.37;98892.22;5055417;28;20454;-69
2021/01/21 07:34:27;;;;;;;18.52;2.40;;;;;;;11.39;57.05;98889.69;5073742;28;20047;-69
2021/01/21 07:37:24;;;;;;;12.55;1.77;;;;;;;11.32;56.07;98898.72;5072378;28;20028;-64
2021/01/21 07:39:54;;;;;;;10.38;1.98;;;;;;;11.31;56.21;98891.75;5075471;28;20043;-68
2021/01/21 07:42:21;;;;;;;13.63;2.30;;;;;;;11.08;58.09;98889.31;5055846;28;20032;-69
2021/01/21 07:44:50;;;;;;;13.07;1.63;;;;;;;11.25;57.18;98892.72;5073192;28;20080;-68
2021/01/21 07:47:31;;;;;;;6.78;1.80;;;;;;;11.38;56.51;98894.22;5071671;28;20043;-68
2021/01/21 07:50:26;;;;;;;12.63;2.20;;;;;;;11.16;56.94;98910.28;5071765;28;20472;-68
2021/01/21 07:53:02;;;;;;;13.52;3.08;;;;;;;10.93;57.26;98903.25;5076218;28;20039;-68
2021/01/21 07:55:36;;;;;;;15.02;2.97;;;;;;;11.60;54.34;98906.81;5085961;28;20044;-68
2021/01/21 07:58:27;;;;;;;15.70;2.63;;;;;;;11.24;55.69;98903.69;5074724;28;20048;-69
2021/01/21 08:00:55;;;;;;;14.00;2.00;;;;;;;11.38;56.04;98915.63;5075155;28;20032;-68
2021/01/21 08:03:33;;;;;;;5.85;1.75;;;;;;;11.17;56.49;98906.53;5093602;28;20071;-67
2021/01/21 08:06:14;;;;;;;16.08;2.38;;;;;;;11.09;56.66;98909.66;5095384;28;20090;-68
2021/01/21 08:08:42;;;;;;;13.32;1.90;;;;;;;11.46;56.53;98915.22;5111170;28;20055;-68
2021/01/21 08:11:16;;;;;;;15.05;2.83;;;;;;;11.85;54.42;98918.88;5095794;28;20425;-68
2021/01/21 08:13:42;;;;;;;13.00;2.10;;;;;;;10.95;57.59;98920.69;5089469;28;20036;-68
2021/01/21 08:16:12;;;;;;;10.43;2.70;;;;;;;11.08;57.25;98921.41;5055152;28;20044;-67
2021/01/21 08:18:38;;;;;;;11.27;1.80;;;;;;;11.09;57.79;98915.00;5089505;28;20043;-68
2021/01/21 08:21:23;;;;;;;20.02;2.92;;;;;;;11.41;55.76;98925.84;5091884;28;20043;-68
2021/01/21 08:24:00;;;;;;;11.48;2.25;;;;;;;11.47;55.18;98918.69;5091041;28;20475;-68
2021/01/21 08:26:30;;;;;;;16.00;2.17;;;;;;;11.70;54.52;98935.56;5091142;28;20052;-69
2021/01/21 08:28:57;;;;;;;11.95;2.10;;;;;;;11.64;54.59;98939.25;5091305;28;20116;-67
2021/01/21 08:31:47;;;;;;;14.25;2.95;;;;;;;12.53;50.98;98956.00;5076398;28;20040;-62
2021/01/21 08:34:21;;;;;;;14.57;1.90;;;;;;;12.77;50.03;98943.09;5090024;28;20067;-68
2021/01/21 08:36:48;;;;;;;14.18;2.08;;;;;;;11.90;53.67;98951.09;5090374;28;20109;-70
2021/01/21 08:39:14;;;;;;;8.43;2.42;;;;;;;11.77;53.19;98939.69;5091612;28;20036;-69
2021/01/21 08:41:42;;;;;;;10.85;2.30;;;;;;;11.86;53.82;98929.34;5091272;28;20036;-68
2021/01/21 08:44:15;;;;;;;10.95;1.98;;;;;;;12.27;52.53;98952.31;5090223;28;20051;-68
2021/01/21 08:46:40;;;;;;;15.45;2.70;;;;;;;12.70;50.86;98945.19;5091045;28;20545;-69
2021/01/21 08:49:10;;;;;;;5.73;1.90;;;;;;;11.94;54.29;98938.81;5089795;28;20036;-60
2021/01/21 08:51:39;;;;;;;14.15;2.92;;;;;;;11.79;55.56;98965.41;5090811;28;20036;-68
2021/01/21 08:54:23;;;;;;;18.27;2.88;;;;;;;11.57;56.96;98983.09;5091169;28;20047;-68
2021/01/21 08:57:08;;;;;;;13.15;3.08;;;;;;;12.09;56.28;98956.94;5076441;28;20036;-69
2021/01/21 08:59:34;;;;;;;9.90;2.17;;;;;;;11.65;59.01;98955.09;5094945;28;20528;-70
2021/01/21 09:01:59;;;;;;;12.00;2.55;;;;;;;12.25;56.83;98963.25;5093389;28;20443;-69
2021/01/21 09:04:35;;;;;;;17.73;2.53;;;;;;;12.57;56.10;98961.69;5094084;28;20040;-69
2021/01/21 09:07:01;;;;;;;11.23;2.40;;;;;;;12.19;57.85;98978.47;5094692;28;20047;-69
2021/01/21 09:09:32;;;;;;;13.05;3.63;;;;;;;12.62;57.41;98972.44;5094950;28;20396;-67
2021/01/21 09:12:21;;;;;;;14.80;2.38;;;;;;;12.45;58.64;98959.16;5094254;28;20067;-68
2021/01/21 09:15:07;;;;;;;15.90;2.00;;;;;;;12.42;59.17;98991.84;5075677;28;20036;-67
2021/01/21 09:17:34;;;;;;;11.75;3.17;;;;;;;12.45;58.98;98997.50;5084593;28;20040;-69
2021/01/21 09:20:02;;;;;;;15.35;2.78;;;;;;;12.66;58.74;98962.81;5056821;28;20093;-68
2021/01/21 09:22:38;;;;;;;15.27;2.85;;;;;;;12.91;57.49;98972.16;5073033;28;20037;-68
2021/01/21 09:25:08;;;;;;;10.20;2.83;;;;;;;13.54;53.68;99009.09;5074137;28;20120;-67
2021/01/21 09:27:36;;;;;;;11.85;2.50;;;;;;;14.63;48.29;98993.34;5074010;28;20169;-68
2021/01/21 09:30:12;;;;;;;14.25;2.45;;;;;;;14.86;48.19;98975.88;5078693;28;20036;-68
2021/01/21 09:32:41;;;;;;;8.52;2.50;;;;;;;15.15;47.66;98982.59;5074812;28;20552;-67
2021/01/21 09:35:11;;;;;;;10.50;2.95;;;;;;;14.81;47.99;98978.56;5094214;28;20036;-67
2021/01/21 09:37:43;;;;;;;14.07;3.58;;;;;;;14.70;48.15;99001.94;5093742;28;20035;-68
2021/01/21 09:40:11;;;;;;;19.20;3.40;;;;;;;15.03;48.33;98986.38;5093745;28;20076;-60
2021/01/21 09:42:36;;;;;;;13.05;2.50;;;;;;;15.30;47.56;98996.03;5092831;28;20110;-68
2021/01/21 09:45:08;;;;;;;11.38;2.03;;;;;;;14.00;51.26;98983.50;5075532;28;20475;-67
2021/01/21 09:47:34;;;;;;;10.63;2.60;;;;;;;15.05;49.03;99013.84;5093611;28;20472;-68
2021/01/21 09:49:59;;;;;;;13.00;2.42;;;;;;;15.11;47.97;98984.22;5093705;28;20035;-68
2021/01/21 09:52:25;;;;;;;14.18;2.17;;;;;;;14.18;50.97;99012.63;5091879;28;20040;-67
2021/01/21 09:54:50;;;;;;;10.13;2.55;;;;;;;15.67;46.60;98998.63;5093685;28;20032;-69
2021/01/21 09:57:16;;;;;;;14.07;1.93;;;;;;;15.48;46.64;98986.56;5089001;28;20040;-68
2021/01/21 09:59:42;;;;;;;15.23;1.80;;;;;;;16.25;44.41;99000.03;5073377;28;20040;-66
2021/01/21 10:02:08;;;;;;;8.55;1.60;;;;;;;15.62;45.71;99002.16;5073221;28;20037;-68
2021/01/21 10:04:40;;;;;;;8.70;1.83;;;;;;;14.59;49.22;99008.41;5073070;28;20054;-69
2021/01/21 10:07:06;;;;;;;14.60;2.28;;;;;;;14.38;50.10;99004.84;5054551;28;20043;-67
2021/01/21 10:09:33;;;;;;;12.27;2.65;;;;;;;15.13;47.60;99003.59;5072150;28;20535;-67
2021/01/21 10:11:59;;;;;;;10.52;2.28;;;;;;;15.73;45.84;99024.50;5073350;28;20033;-66
2021/01/21 10:14:25;;;;;;;16.00;3.33;;;;;;;14.88;48.22;99007.91;5054249;28;20131;-67
2021/01/21 10:16:50;;;;;;;10.85;2.38;;;;;;;15.24;47.57;98999.81;5054873;28;20483;-66
2021/01/21 10:19:16;;;;;;;9.60;1.60;;;;;;;16.07;45.01;99017.66;5072160;28;20119;-66
2021/01/21 10:21:41;;;;;;;13.13;2.30;;;;;;;15.86;45.08;98990.75;5072734;28;20258;-66
2021/01/21 10:24:07;;;;;;;11.57;2.17;;;;;;;15.33;46.38;99014.34;5073202;28;20549;-66
2021/01/21 10:26:32;;;;;;;6.40;1.60;;;;;;;15.26;47.13;99000.38;5072606;28;20059;-67
2021/01/21 10:28:58;;;;;;;10.55;2.08;;;;;;;15.42;46.58;99001.13;5073658;28;20104;-66
2021/01/21 10:31:24;;;;;;;13.60;1.70;;;;;;;15.36;46.09;99022.97;5076379;28;20145;-67
2021/01/21 10:33:49;;;;;;;13.18;2.38;;;;;;;13.98;49.43;99001.78;5093010;28;20341;-67
2021/01/21 10:36:15;;;;;;;9.73;1.80;;;;;;;14.76;47.98;99000.94;5091664;28;20031;-67
2021/01/21 10:38:41;;;;;;;9.53;1.60;;;;;;;14.38;48.74;99003.00;5092808;28;20024;-67
2021/01/21 10:41:08;;;;;;;6.75;2.13;;;;;;;14.20;49.69;99013.16;5093277;28;20111;-66
2021/01/21 10:43:36;;;;;;;;;;;;;;;13.82;50.99;99011.66;5091860;28;20038;-65
2021/01/21 10:46:02;;;;;;;9.65;2.00;;;;;;;13.82;51.34;99009.78;5081740;28;19987;-67
2021/01/21 10:48:28;;;;;;;7.43;1.85;;;;;;;13.91;51.06;99012.78;5071936;28;20120;-66
2021/01/21 10:50:54;;;;;;;8.63;1.70;;;;;;;13.80;51.39;99009.22;5059434;28;20467;-67
2021/01/21 10:53:19;;;;;;;8.00;1.60;;;;;;;13.96;50.89;99017.38;5091567;28;20028;-66
2021/01/21 10:55:45;;;;;;;11.37;2.53;;;;;;;14.85;48.84;99011.94;5074038;28;20040;-67
2021/01/21 10:58:13;;;;;;;6.85;2.17;;;;;;;13.77;50.71;99053.56;5092240;28;20042;-58
2021/01/21 11:00:40;;;;;;;7.45;1.80;;;;;;;14.32;50.10;99022.88;5092024;28;20036;-68
2021/01/21 11:03:05;;;;;;;18.25;3.13;;;;;;;14.37;50.16;99014.81;5091988;28;20533;-67
2021/01/21 11:05:31;;;;;;;9.53;2.40;;;;;;;14.26;49.98;99021.22;5073079;28;20281;-68
2021/01/21 11:07:56;;;;;;;9.53;1.70;;;;;;;13.97;50.51;98997.47;5092164;28;20024;-63
2021/01/21 11:10:22;;;;;;;7.47;2.10;;;;;;;14.48;49.23;99019.13;5091618;28;20040;-67
2021/01/21 11:12:48;;;;;;;5.57;1.40;;;;;;;14.29;49.75;99008.06;5091938;28;20384;-67
2021/01/21 11:15:16;;;;;;;15.88;2.33;;;;;;;13.91;50.62;99029.72;5072970;28;20473;-66
2021/01/21 11:17:43;;;;;;;6.70;1.73;;;;;;;14.59;48.99;99013.78;5076619;28;20032;-61
2021/01/21 11:20:09;;;;;;;9.13;3.38;;;;;;;14.49;49.08;99015.38;5090263;28;20051;-65
2021/01/21 11:22:37;;;;;;;12.05;2.40;;;;;;;14.31;49.97;99008.63;5090955;28;20039;-66
2021/01/21 11:25:03;;;;;;;9.25;1.38;;;;;;;14.74;48.80;99019.19;5091767;28;20173;-67
2021/01/21 11:27:28;;;;;;;9.38;1.92;;;;;;;13.97;50.31;99070.88;5091131;28;20119;-66
2021/01/21 11:29:54;;;;;;;12.27;2.77;;;;;;;14.19;49.71;99006.16;5091464;28;20222;-66
2021/01/21 11:32:19;;;;;;;7.50;1.60;;;;;;;15.96;44.79;99039.25;5089457;28;20040;-66
2021/01/21 11:34:45;;;;;;;10.13;2.13;;;;;;;16.37;42.75;99046.34;5089794;28;20032;-66
2021/01/21 11:37:10;;;;;;;9.07;1.77;;;;;;;15.75;44.79;99049.28;5073715;28;20120;-65
2021/01/21 11:39:36;;;;;;;10.87;2.83;;;;;;;16.00;44.36;99040.31;5090951;28;20036;-65
2021/01/21 11:42:01;;;;;;;8.73;2.30;;;;;;;16.09;44.17;99005.50;5091738;28;20040;-65
2021/01/21 11:44:27;;;;;;;4.93;1.40;;;;;;;16.47;42.74;99000.44;5090868;28;20032;-65
2021/01/21 11:46:52;;;;;;;6.17;1.67;;;;;;;15.86;43.93;99006.94;5091108;28;20089;-65
2021/01/21 11:49:18;;;;;;;13.67;2.67;;;;;;;15.46;45.60;99012.97;5089544;28;20081;-65
2021/01/21 11:51:43;;;;;;;10.27;2.50;;;;;;;16.55;43.45;98996.34;5069124;28;20036;-64
2021/01/21 11:54:09;;;;;;;9.07;1.33;;;;;;;15.59;45.33;99021.56;5060905;28;20384;-65
2021/01/21 11:56:34;;;;;;;11.93;2.57;;;;;;;15.03;46.61;99037.53;5072843;28;20387;-67
2021/01/21 11:59:00;;;;;;;10.73;2.30;;;;;;;14.67;47.69;99028.59;5085677;28;20047;-65
2021/01/21 12:01:25;;;;;;;8.77;1.70;;;;;;;15.10;47.11;99041.84;5089467;28;20045;-65
2021/01/21 12:03:51;;;;;;;6.33;1.47;;;;;;;15.79;44.73;99023.41;5090932;28;20043;-66
2021/01/21 12:06:17;;;;;;;11.10;2.15;;;;;;;15.75;44.86;99009.66;5072249;28;20300;-59
2021/01/21 12:08:42;;;;;;;6.20;1.30;;;;;;;15.29;45.83;99005.19;5072064;28;20416;-65
2021/01/21 12:11:08;;;;;;;11.32;1.30;;;;;;;14.28;48.45;99008.31;5072604;28;20224;-65
2021/01/21 12:13:33;;;;;;;5.00;1.70;;;;;;;13.58;51.09;99012.09;5067760;28;20357;-61
2021/01/21 12:15:59;;;;;;;12.73;2.00;;;;;;;13.73;51.05;99035.53;5053116;28;20395;-67
2021/01/21 12:18:26;;;;;;;6.75;1.65;;;;;;;14.18;50.31;99004.53;5068840;28;20028;-65
2021/01/21 12:20:53;;;;;;;14.20;2.05;;;;;;;14.38;49.10;99003.00;5073332;28;20078;-66
2021/01/21 12:23:18;;;;;;;14.68;2.47;;;;;;;14.26;49.48;99031.97;5081256;28;20074;-63
2021/01/21 12:25:44;;;;;;;12.37;2.33;;;;;;;14.86;48.25;98983.16;5053211;28;20559;-66
2021/01/21 12:28:09;;;;;;;10.13;2.55;;;;;;;15.60;45.43;99010.50;5070645;28;20039;-66
2021/01/21 12:30:35;;;;;;;11.40;2.00;;;;;;;14.52;48.02;98983.63;5039924;28;20114;-66
2021/01/21 12:33:00;;;;;;;6.07;1.73;;;;;;;14.32;48.80;98988.72;5076385;28;20032;-66
2021/01/21 12:35:26;;;;;;;8.17;1.90;;;;;;;14.51;48.04;98995.47;5087626;28;20041;-65
2021/01/21 12:37:51;;;;;;;9.82;1.73;;;;;;;14.41;49.04;98972.06;5074506;28;20383;-67
2021/01/21 12:40:17;;;;;;;10.77;1.77;;;;;;;14.05;49.59;99000.47;5086713;28;20043;-66
2021/01/21 12:42:43;;;;;;;6.78;1.73;;;;;;;14.02;49.86;98976.00;5093925;28;20063;-64